Time;durP1;ratioP1;P1;durP2;ratioP2;P2;SDS_P1;SDS_P2;PMS_P1;PMS_P2;Temp;Humidity;BMP_temperature;BMP_pressure;BME280_temperature;BME280_humidity;BME280_pressure;Samples;Min_cycle;Max_cycle;Signal;HPM_P1;HPM_P2
2021/09/07 00:02:12;;;;;;;9.10;6.97;;;17.40;56.50;;;;;;5034795;28;20017;-75
2021/09/07 00:04:38;;;;;;;10.13;6.43;;;17.30;56.50;;;;;;5052331;28;20474;-76
2021/09/07 00:07:03;;;;;;;22.08;8.80;;;17.30;56.50;;;;;;5052124;28;20040;-75
2021/09/07 00:09:29;;;;;;;12.38;8.05;;;17.30;56.90;;;;;;5035607;28;20167;-75
2021/09/07 00:11:55;;;;;;;11.55;7.28;;;17.30;57.20;;;;;;5052256;28;20029;-75
2021/09/07 00:14:22;;;;;;;9.95;6.60;;;17.30;57.00;;;;;;5052121;28;20036;-75
2021/09/07 00:16:47;;;;;;;10.80;7.50;;;17.30;56.90;;;;;;5051268;28;20021;-75
2021/09/07 00:19:13;;;;;;;13.95;8.02;;;17.20;56.90;;;;;;5052450;28;20434;-75
2021/09/07 00:21:39;;;;;;;11.15;7.20;;;17.20;57.10;;;;;;5052929;28;20013;-75
2021/09/07 00:24:05;;;;;;;11.70;7.53;;;17.20;57.00;;;;;;5054708;28;20059;-75
2021/09/07 00:26:31;;;;;;;15.43;7.75;;;17.10;57.00;;;;;;5056395;28;20029;-75
2021/09/07 00:28:56;;;;;;;10.80;7.72;;;17.10;57.20;;;;;;5061930;28;20032;-75
2021/09/07 00:31:22;;;;;;;10.20;7.32;;;17.10;57.30;;;;;;5056065;28;20049;-75
2021/09/07 00:33:48;;;;;;;17.50;7.45;;;17.10;57.30;;;;;;5055820;28;20029;-75
2021/09/07 00:36:14;;;;;;;12.50;7.65;;;17.00;57.30;;;;;;5055536;28;20047;-75
2021/09/07 00:38:40;;;;;;;14.13;6.85;;;17.00;57.40;;;;;;5042415;28;20024;-75
2021/09/07 00:41:06;;;;;;;12.52;7.50;;;17.00;57.30;;;;;;5056004;28;20083;-75
2021/09/07 00:43:32;;;;;;;16.63;8.52;;;17.00;57.50;;;;;;5054380;28;20033;-75
2021/09/07 00:46:22;;;;;;;14.40;8.10;;;16.90;57.70;;;;;;5055942;28;20490;-75
2021/09/07 00:49:00;;;;;;;13.80;8.63;;;16.90;58.10;;;;;;5055675;28;20021;-75
2021/09/07 00:51:27;;;;;;;14.07;8.93;;;16.90;58.20;;;;;;5055424;28;20025;-75
2021/09/07 00:53:53;;;;;;;12.75;8.40;;;16.90;58.20;;;;;;5053913;28;20497;-75
2021/09/07 00:56:19;;;;;;;13.48;9.18;;;16.90;58.40;;;;;;5055598;28;20029;-75
2021/09/07 00:58:47;;;;;;;11.75;8.13;;;16.80;58.40;;;;;;5055183;28;20439;-76
2021/09/07 01:01:12;;;;;;;12.13;7.93;;;16.80;58.40;;;;;;5051983;28;20040;-75
2021/09/07 01:03:38;;;;;;;13.80;7.72;;;16.80;58.60;;;;;;5053398;28;20029;-75
2021/09/07 01:06:04;;;;;;;15.68;8.27;;;16.80;58.70;;;;;;5054953;28;20082;-75
2021/09/07 01:08:30;;;;;;;11.23;7.82;;;16.80;58.60;;;;;;5054044;28;20021;-76
2021/09/07 01:10:56;;;;;;;10.52;7.57;;;16.80;58.50;;;;;;5054706;28;20112;-75
2021/09/07 01:13:22;;;;;;;14.05;8.05;;;16.80;58.50;;;;;;5055183;28;20053;-75
2021/09/07 01:15:48;;;;;;;11.55;7.53;;;16.80;58.40;;;;;;5035255;28;20025;-75
2021/09/07 01:18:14;;;;;;;14.27;7.45;;;16.70;58.50;;;;;;5040351;28;20082;-75
2021/09/07 01:20:40;;;;;;;10.85;7.03;;;16.70;58.40;;;;;;5054701;28;20078;-75
2021/09/07 01:23:06;;;;;;;11.00;7.18;;;16.70;58.40;;;;;;5054831;28;20033;-76
2021/09/07 01:25:32;;;;;;;10.95;7.25;;;16.70;58.60;;;;;;5054769;28;20052;-75
2021/09/07 01:27:57;;;;;;;11.98;7.85;;;16.70;58.80;;;;;;5055315;28;20342;-75
2021/09/07 01:30:23;;;;;;;12.13;8.02;;;16.60;58.80;;;;;;5054598;28;20053;-75
2021/09/07 01:32:49;;;;;;;15.18;9.02;;;16.60;58.80;;;;;;5054656;28;20044;-75
2021/09/07 01:35:15;;;;;;;10.00;7.35;;;16.60;58.90;;;;;;5053618;28;20102;-75
2021/09/07 01:37:42;;;;;;;11.20;8.05;;;16.60;58.90;;;;;;5054567;28;20063;-75
2021/09/07 01:40:09;;;;;;;12.80;8.38;;;16.60;59.00;;;;;;5045910;28;20029;-75
2021/09/07 01:42:36;;;;;;;23.02;8.85;;;16.50;58.90;;;;;;5054526;28;20144;-75
2021/09/07 01:45:01;;;;;;;13.57;7.43;;;16.50;59.10;;;;;;5054380;28;20066;-75
2021/09/07 01:47:27;;;;;;;13.57;7.32;;;16.50;59.00;;;;;;5054750;28;20029;-75
2021/09/07 01:49:53;;;;;;;12.45;7.75;;;16.50;59.10;;;;;;5054311;28;20025;-75
2021/09/07 01:52:19;;;;;;;11.82;7.32;;;16.50;59.20;;;;;;5066134;28;20048;-75
2021/09/07 01:54:47;;;;;;;10.52;7.10;;;16.40;59.00;;;;;;5062959;28;20079;-75
2021/09/07 01:57:13;;;;;;;18.85;8.70;;;16.40;59.10;;;;;;5054392;28;20107;-75
2021/09/07 01:59:39;;;;;;;11.75;7.45;;;16.40;59.30;;;;;;5054594;28;20033;-75
2021/09/07 02:02:06;;;;;;;13.85;7.70;;;16.40;59.30;;;;;;5052680;28;20079;-75
2021/09/07 02:04:31;;;;;;;11.75;7.30;;;16.30;59.20;;;;;;5035283;28;20024;-75
2021/09/07 02:06:57;;;;;;;11.80;7.43;;;16.30;59.20;;;;;;5054146;28;20423;-75
2021/09/07 02:09:26;;;;;;;15.30;8.18;;;16.30;59.30;;;;;;5052434;28;20478;-75
2021/09/07 02:11:53;;;;;;;16.02;8.20;;;16.30;59.40;;;;;;5052691;28;20025;-75
2021/09/07 02:14:18;;;;;;;10.68;7.38;;;16.30;59.50;;;;;;5054089;28;20713;-75
2021/09/07 02:16:44;;;;;;;13.55;7.05;;;16.30;59.50;;;;;;5054015;28;20025;-75
2021/09/07 02:19:10;;;;;;;12.07;7.70;;;16.30;59.50;;;;;;5048575;28;20037;-75
2021/09/07 02:21:36;;;;;;;11.68;7.68;;;16.20;59.70;;;;;;5053532;28;20120;-75
2021/09/07 02:24:02;;;;;;;13.30;6.97;;;16.20;59.70;;;;;;5053808;28;20059;-75
2021/09/07 02:26:27;;;;;;;9.93;6.47;;;16.20;59.60;;;;;;5053504;28;20059;-75
2021/09/07 02:28:53;;;;;;;12.60;7.85;;;16.20;59.60;;;;;;5053663;28;20027;-75
2021/09/07 02:31:19;;;;;;;14.55;8.48;;;16.20;59.70;;;;;;5053141;28;20490;-75
2021/09/07 02:33:45;;;;;;;10.55;7.78;;;16.20;59.90;;;;;;5035687;28;20091;-75
2021/09/07 02:36:10;;;;;;;12.00;7.88;;;16.20;60.00;;;;;;5053694;28;20029;-75
2021/09/07 02:38:36;;;;;;;13.13;7.47;;;16.20;60.00;;;;;;5053499;28;20032;-75
2021/09/07 02:41:02;;;;;;;13.35;7.07;;;16.30;60.10;;;;;;5053328;28;20033;-75
2021/09/07 02:43:28;;;;;;;13.63;7.22;;;16.20;60.00;;;;;;5052990;28;20112;-75
2021/09/07 02:45:54;;;;;;;10.43;6.93;;;16.30;60.10;;;;;;5052102;28;20032;-75
2021/09/07 02:48:20;;;;;;;13.18;8.38;;;16.30;60.10;;;;;;5052256;28;20052;-75
2021/09/07 02:50:46;;;;;;;11.18;7.80;;;16.30;60.20;;;;;;5053506;28;20064;-75
2021/09/07 02:53:12;;;;;;;13.55;8.13;;;16.30;60.30;;;;;;5053009;28;20036;-75
2021/09/07 02:55:38;;;;;;;16.58;8.15;;;16.30;60.60;;;;;;5053058;28;20032;-75
2021/09/07 02:58:04;;;;;;;10.80;7.93;;;16.30;60.40;;;;;;5053401;28;20028;-75
2021/09/07 03:00:30;;;;;;;10.30;7.35;;;16.30;60.40;;;;;;5047180;28;20032;-75
2021/09/07 03:02:56;;;;;;;13.02;8.40;;;16.30;60.20;;;;;;5051774;28;20021;-75
2021/09/07 03:05:22;;;;;;;11.73;7.50;;;16.30;60.30;;;;;;5051934;28;20066;-75
2021/09/07 03:07:48;;;;;;;12.50;8.02;;;16.30;60.10;;;;;;5049261;28;20098;-75
2021/09/07 03:10:14;;;;;;;15.07;8.18;;;16.30;60.40;;;;;;5045268;28;20482;-75
2021/09/07 03:12:41;;;;;;;14.38;8.52;;;16.30;60.40;;;;;;5053092;28;20029;-75
2021/09/07 03:15:08;;;;;;;10.38;7.30;;;16.30;60.30;;;;;;5052938;28;20037;-75
2021/09/07 03:17:34;;;;;;;14.55;8.65;;;16.30;60.40;;;;;;5052921;28;20106;-75
2021/09/07 03:19:59;;;;;;;13.38;7.95;;;16.30;60.70;;;;;;5052451;28;20061;-75
2021/09/07 03:22:25;;;;;;;12.85;8.70;;;16.30;60.90;;;;;;5052457;28;20025;-75
2021/09/07 03:24:51;;;;;;;21.88;9.48;;;16.30;61.10;;;;;;5052882;28;20033;-75
2021/09/07 03:27:17;;;;;;;11.00;7.65;;;16.40;61.30;;;;;;5052785;28;20025;-75
2021/09/07 03:29:43;;;;;;;11.18;7.35;;;16.40;61.10;;;;;;5051782;28;20043;-75
2021/09/07 03:32:09;;;;;;;10.43;7.20;;;16.40;60.90;;;;;;5052854;28;20368;-75
2021/09/07 03:34:34;;;;;;;9.18;6.75;;;16.40;60.80;;;;;;5052652;28;20040;-75
2021/09/07 03:37:00;;;;;;;13.45;8.55;;;16.50;60.70;;;;;;5052790;28;20079;-75
2021/09/07 03:39:26;;;;;;;12.93;8.43;;;16.50;60.90;;;;;;5052556;28;20493;-75
2021/09/07 03:41:52;;;;;;;15.55;8.15;;;16.50;60.80;;;;;;5051988;28;20360;-74
2021/09/07 03:44:17;;;;;;;11.30;7.57;;;16.50;60.80;;;;;;5039887;28;20470;-74
2021/09/07 03:46:43;;;;;;;11.55;7.47;;;16.50;60.50;;;;;;5052314;28;20050;-73
2021/09/07 03:49:09;;;;;;;9.68;7.00;;;16.60;60.60;;;;;;5050460;28;20113;-73
2021/09/07 03:51:35;;;;;;;10.00;7.05;;;16.50;60.30;;;;;;5052482;28;20033;-74
2021/09/07 03:54:01;;;;;;;12.98;8.38;;;16.60;60.30;;;;;;5052185;28;20032;-74
2021/09/07 03:56:27;;;;;;;12.70;8.48;;;16.60;60.60;;;;;;5051703;28;20029;-74
2021/09/07 03:58:53;;;;;;;10.75;7.68;;;16.60;60.50;;;;;;5054251;28;20013;-74
2021/09/07 04:01:19;;;;;;;13.13;8.52;;;16.50;60.40;;;;;;5056456;28;20492;-74
2021/09/07 04:03:45;;;;;;;19.75;8.70;;;16.50;60.50;;;;;;5056373;28;20024;-74
2021/09/07 04:06:11;;;;;;;11.73;8.45;;;16.50;60.50;;;;;;5055876;28;20029;-74
2021/09/07 04:08:36;;;;;;;12.10;8.30;;;16.50;60.60;;;;;;5038194;28;20025;-74
2021/09/07 04:11:02;;;;;;;11.35;8.00;;;16.50;60.70;;;;;;5055910;28;20025;-74
2021/09/07 04:13:28;;;;;;;11.90;8.55;;;16.50;60.70;;;;;;5056296;28;20032;-74
2021/09/07 04:15:54;;;;;;;12.82;7.82;;;16.50;60.80;;;;;;5056088;28;20025;-74
2021/09/07 04:18:20;;;;;;;11.10;7.70;;;16.50;60.90;;;;;;5038216;28;20107;-73
2021/09/07 04:20:45;;;;;;;10.02;7.43;;;16.50;61.00;;;;;;5038166;28;20033;-74
2021/09/07 04:23:11;;;;;;;12.60;8.13;;;16.50;60.80;;;;;;5056102;28;20379;-74
2021/09/07 04:25:37;;;;;;;11.65;7.95;;;16.50;60.80;;;;;;5056089;28;20024;-74
2021/09/07 04:28:03;;;;;;;15.25;8.10;;;16.50;60.80;;;;;;5056082;28;20036;-73
2021/09/07 04:30:29;;;;;;;11.90;8.10;;;16.60;60.90;;;;;;5038074;28;20097;-74
2021/09/07 04:32:55;;;;;;;12.65;8.00;;;16.60;60.90;;;;;;5055973;28;20024;-74
2021/09/07 04:35:21;;;;;;;13.30;8.18;;;16.60;60.90;;;;;;5055706;28;20444;-74
2021/09/07 04:37:47;;;;;;;13.63;7.78;;;16.60;61.00;;;;;;5054645;28;20029;-74
2021/09/07 04:40:13;;;;;;;10.43;7.30;;;16.60;61.10;;;;;;5055301;28;20029;-74
2021/09/07 04:42:39;;;;;;;13.25;7.80;;;16.70;61.00;;;;;;5055858;28;20040;-74
2021/09/07 04:45:06;;;;;;;12.85;8.55;;;16.60;60.90;;;;;;5055820;28;20028;-74
2021/09/07 04:47:32;;;;;;;17.90;9.23;;;16.70;61.10;;;;;;5055507;28;20028;-74
2021/09/07 04:49:58;;;;;;;12.60;8.57;;;16.70;61.20;;;;;;5067122;28;20041;-75
2021/09/07 04:52:23;;;;;;;12.05;8.20;;;16.70;61.20;;;;;;5066288;28;20031;-74
2021/09/07 04:54:49;;;;;;;12.93;7.78;;;16.80;61.20;;;;;;5055244;28;20029;-74
2021/09/07 04:57:15;;;;;;;14.70;7.82;;;16.80;61.20;;;;;;5055553;28;20029;-74
2021/09/07 04:59:41;;;;;;;11.10;7.93;;;16.80;61.10;;;;;;5054941;28;20040;-74
2021/09/07 05:02:07;;;;;;;11.55;7.85;;;16.80;61.10;;;;;;5053819;28;20075;-74
2021/09/07 05:04:32;;;;;;;13.27;8.15;;;16.90;61.20;;;;;;5058796;28;20386;-74
2021/09/07 05:06:58;;;;;;;12.43;8.57;;;16.90;61.00;;;;;;5063515;28;20441;-74
2021/09/07 05:09:24;;;;;;;11.30;7.88;;;16.90;60.90;;;;;;5037653;28;20059;-74
2021/09/07 05:11:50;;;;;;;13.15;8.10;;;17.00;61.00;;;;;;5055381;28;20017;-74
2021/09/07 05:14:16;;;;;;;9.90;7.95;;;17.00;61.00;;;;;;5037310;28;20482;-74
2021/09/07 05:16:42;;;;;;;17.08;9.07;;;17.00;60.90;;;;;;5055114;28;20063;-75
2021/09/07 05:19:09;;;;;;;11.93;8.15;;;17.10;61.00;;;;;;5037057;28;20059;-75
2021/09/07 05:21:35;;;;;;;17.48;9.43;;;17.10;61.00;;;;;;5054942;28;20154;-75
2021/09/07 05:24:01;;;;;;;14.00;8.52;;;17.10;61.10;;;;;;5055149;28;20227;-75
2021/09/07 05:26:26;;;;;;;13.20;8.57;;;17.20;61.20;;;;;;5054753;28;20076;-75
2021/09/07 05:28:52;;;;;;;12.15;8.43;;;17.20;61.10;;;;;;5054981;28;20044;-75
2021/09/07 05:31:18;;;;;;;10.75;7.35;;;17.30;61.10;;;;;;5050491;28;20091;-75
2021/09/07 05:33:44;;;;;;;12.73;8.32;;;17.40;61.10;;;;;;5053914;28;20029;-75
2021/09/07 05:36:10;;;;;;;11.45;7.95;;;17.40;61.20;;;;;;5053809;28;20033;-75
2021/09/07 05:38:36;;;;;;;15.80;7.82;;;17.50;61.10;;;;;;5035753;28;20052;-74
2021/09/07 05:41:03;;;;;;;12.80;7.80;;;17.50;61.00;;;;;;5053444;28;20055;-75
2021/09/07 05:43:29;;;;;;;16.20;8.73;;;17.60;61.20;;;;;;5041431;28;20444;-75
2021/09/07 05:45:55;;;;;;;13.57;9.02;;;17.60;61.00;;;;;;5053546;28;20056;-75
2021/09/07 05:48:21;;;;;;;16.00;8.90;;;17.70;61.00;;;;;;5053458;28;20037;-75
2021/09/07 05:50:46;;;;;;;14.25;9.20;;;17.80;60.90;;;;;;5053158;28;20025;-75
2021/09/07 05:53:12;;;;;;;16.88;9.90;;;17.80;60.90;;;;;;5065114;28;20075;-75
2021/09/07 05:55:38;;;;;;;15.93;10.57;;;17.80;60.70;;;;;;5052908;28;20029;-75
2021/09/07 05:58:04;;;;;;;17.45;8.50;;;17.90;60.70;;;;;;5053153;28;20474;-75
2021/09/07 06:00:31;;;;;;;13.50;8.77;;;17.90;60.50;;;;;;5053242;28;20471;-75
2021/09/07 06:02:58;;;;;;;15.52;9.20;;;18.00;60.50;;;;;;5052828;28;20028;-74
2021/09/07 06:05:24;;;;;;;15.25;10.07;;;18.00;60.50;;;;;;5052069;28;20025;-75
2021/09/07 06:07:50;;;;;;;15.82;9.13;;;18.00;60.40;;;;;;5053350;28;20021;-75
2021/09/07 06:10:16;;;;;;;13.82;9.40;;;18.00;60.30;;;;;;5053255;28;20083;-75
2021/09/07 06:12:41;;;;;;;14.95;9.70;;;18.10;60.20;;;;;;5051513;28;20032;-74
2021/09/07 06:15:08;;;;;;;16.45;9.88;;;18.10;60.10;;;;;;5052002;28;20033;-75
2021/09/07 06:17:34;;;;;;;21.15;9.10;;;18.10;60.10;;;;;;5053089;28;20048;-75
2021/09/07 06:20:00;;;;;;;14.43;9.18;;;18.10;60.10;;;;;;5052961;28;20499;-75
2021/09/07 06:22:26;;;;;;;14.65;8.82;;;18.10;60.00;;;;;;5052120;28;20108;-75
2021/09/07 06:24:52;;;;;;;15.43;8.90;;;18.20;60.00;;;;;;5040771;28;20020;-75
2021/09/07 06:27:19;;;;;;;14.63;8.80;;;18.20;59.90;;;;;;5036852;28;20370;-75
2021/09/07 06:29:46;;;;;;;12.57;8.98;;;18.20;59.90;;;;;;5052092;28;20064;-75
2021/09/07 06:32:13;;;;;;;12.88;8.98;;;18.30;60.00;;;;;;5051405;28;20028;-74
2021/09/07 06:34:39;;;;;;;13.98;9.50;;;18.30;60.10;;;;;;5049510;28;20029;-75
2021/09/07 06:37:06;;;;;;;19.48;10.57;;;18.40;60.20;;;;;;5052393;28;20025;-75
2021/09/07 06:39:31;;;;;;;22.85;10.60;;;18.50;60.20;;;;;;5053100;28;20056;-75
2021/09/07 06:41:57;;;;;;;21.23;12.18;;;18.60;60.00;;;;;;5053695;28;20106;-75
2021/09/07 06:44:23;;;;;;;20.88;11.85;;;18.70;59.60;;;;;;5053406;28;20021;-75
2021/09/07 06:46:49;;;;;;;21.17;12.55;;;18.90;59.50;;;;;;5053003;28;20036;-75
2021/09/07 06:49:15;;;;;;;21.38;12.13;;;19.00;59.30;;;;;;5053122;28;20025;-75
2021/09/07 06:51:41;;;;;;;31.65;13.45;;;19.20;59.20;;;;;;5053155;28;20071;-75
2021/09/07 06:54:07;;;;;;;23.40;12.85;;;19.30;58.80;;;;;;5053228;28;20417;-75
2021/09/07 06:56:33;;;;;;;18.52;11.52;;;19.40;58.50;;;;;;5053004;28;20013;-75
2021/09/07 06:58:58;;;;;;;22.17;11.00;;;19.40;58.30;;;;;;5053413;28;20382;-75
2021/09/07 07:01:24;;;;;;;19.77;12.02;;;19.50;58.10;;;;;;5052885;28;20497;-75
2021/09/07 07:03:50;;;;;;;21.50;13.55;;;19.60;58.00;;;;;;5053007;28;20025;-75
2021/09/07 07:06:16;;;;;;;19.23;12.70;;;19.70;57.80;;;;;;5053259;28;20025;-75
2021/09/07 07:08:41;;;;;;;23.65;12.80;;;19.70;57.70;;;;;;5052175;28;20029;-76
2021/09/07 07:11:07;;;;;;;21.73;12.80;;;19.80;57.70;;;;;;5048368;28;20028;-75
2021/09/07 07:13:33;;;;;;;24.58;12.85;;;19.90;57.50;;;;;;5052136;28;20020;-75
2021/09/07 07:15:59;;;;;;;29.55;15.65;;;20.00;57.50;;;;;;5051802;28;20025;-75
2021/09/07 07:18:25;;;;;;;25.65;15.90;;;20.10;57.40;;;;;;5052714;28;20040;-75
2021/09/07 07:20:50;;;;;;;24.33;14.68;;;20.20;57.10;;;;;;5052631;28;20029;-75
2021/09/07 07:23:16;;;;;;;35.05;15.23;;;20.30;57.40;;;;;;5052484;28;20025;-74
2021/09/07 07:25:43;;;;;;;30.42;16.67;;;20.40;56.60;;;;;;5052659;28;20024;-75
2021/09/07 07:28:09;;;;;;;31.88;16.60;;;20.50;56.40;;;;;;5052790;28;20024;-75
2021/09/07 07:30:35;;;;;;;30.95;18.80;;;20.60;56.30;;;;;;5052558;28;20053;-75
2021/09/07 07:33:01;;;;;;;28.60;16.20;;;20.70;56.00;;;;;;5051990;28;20099;-74
2021/09/07 07:35:27;;;;;;;27.30;17.25;;;20.80;56.10;;;;;;5053217;28;20358;-75
2021/09/07 07:37:53;;;;;;;36.08;20.75;;;21.00;55.70;;;;;;5052863;28;20531;-75
2021/09/07 07:40:19;;;;;;;40.78;21.20;;;21.10;55.40;;;;;;5052679;28;20108;-76
2021/09/07 07:42:44;;;;;;;33.80;20.23;;;21.20;55.30;;;;;;5051734;28;20063;-75
2021/09/07 07:45:11;;;;;;;39.95;20.92;;;21.40;55.20;;;;;;5052382;28;20024;-75
2021/09/07 07:47:37;;;;;;;43.25;22.17;;;21.60;54.80;;;;;;5052626;28;20025;-76
2021/09/07 07:50:03;;;;;;;55.60;24.63;;;21.70;54.00;;;;;;5052909;28;20471;-76
2021/09/07 07:52:29;;;;;;;38.67;22.45;;;21.80;53.40;;;;;;5053108;28;20512;-75
2021/09/07 07:54:55;;;;;;;41.17;21.70;;;21.90;53.10;;;;;;5053165;28;20025;-76
2021/09/07 07:57:20;;;;;;;39.65;21.15;;;21.90;52.70;;;;;;5052889;28;20021;-75
2021/09/07 07:59:46;;;;;;;37.75;21.23;;;22.00;52.80;;;;;;5053450;28;20021;-76
2021/09/07 08:02:13;;;;;;;41.30;21.45;;;22.00;52.70;;;;;;5052604;28;20104;-75
2021/09/07 08:04:39;;;;;;;36.60;21.60;;;22.10;52.50;;;;;;5052470;28;20100;-75
2021/09/07 08:07:06;;;;;;;47.30;24.35;;;22.20;52.40;;;;;;5052561;28;20017;-75
2021/09/07 08:09:32;;;;;;;39.60;22.33;;;22.20;52.00;;;;;;5052517;28;20025;-75
2021/09/07 08:12:01;;;;;;;41.67;23.45;;;22.30;52.10;;;;;;5052501;28;20112;-76
2021/09/07 08:14:27;;;;;;;37.67;20.52;;;22.40;51.50;;;;;;5052411;28;20048;-75
2021/09/07 08:16:53;;;;;;;41.05;21.63;;;22.50;51.60;;;;;;5052263;28;20067;-76
2021/09/07 08:19:19;;;;;;;39.28;22.75;;;22.50;51.30;;;;;;5052162;28;20033;-75
2021/09/07 08:21:45;;;;;;;57.85;25.38;;;22.60;51.10;;;;;;5052258;28;20537;-75
2021/09/07 08:24:11;;;;;;;41.40;25.92;;;22.70;51.30;;;;;;5052152;28;20105;-75
2021/09/07 08:26:37;;;;;;;49.65;24.00;;;22.70;51.30;;;;;;5050916;28;20428;-74
2021/09/07 08:29:02;;;;;;;54.30;24.02;;;22.80;51.10;;;;;;5052169;28;20096;-75
2021/09/07 08:31:28;;;;;;;55.40;23.00;;;22.90;50.90;;;;;;5052257;28;20482;-74
2021/09/07 08:33:54;;;;;;;46.15;22.42;;;23.00;50.80;;;;;;5051170;28;20147;-75
2021/09/07 08:36:20;;;;;;;38.63;21.35;;;23.10;50.90;;;;;;5052286;28;20378;-75
2021/09/07 08:38:46;;;;;;;51.22;24.38;;;23.30;50.40;;;;;;5052289;28;20118;-74
2021/09/07 08:41:17;;;;;;;43.03;23.17;;;23.40;50.10;;;;;;5034307;28;20552;-75
2021/09/07 08:43:53;;;;;;;44.47;23.90;;;23.50;49.80;;;;;;5052216;28;20025;-75
2021/09/07 08:46:20;;;;;;;41.35;21.65;;;23.60;48.90;;;;;;5054406;28;20021;-75
2021/09/07 08:48:46;;;;;;;42.53;22.70;;;23.70;49.20;;;;;;5055691;28;20016;-75
2021/09/07 08:51:16;;;;;;;34.40;20.85;;;23.80;48.50;;;;;;5055609;28;20566;-75
2021/09/07 08:53:42;;;;;;;41.63;19.90;;;23.90;48.00;;;;;;5055602;28;20029;-75
2021/09/07 08:56:09;;;;;;;48.05;26.23;;;24.10;48.30;;;;;;5055565;28;20025;-75
2021/09/07 08:58:35;;;;;;;42.67;26.38;;;24.10;48.20;;;;;;5055433;28;20020;-75
2021/09/07 09:01:15;;;;;;;42.80;26.15;;;24.20;48.40;;;;;;5055307;28;20052;-75
2021/09/07 09:03:44;;;;;;;42.45;23.38;;;24.30;48.10;;;;;;5037575;28;20025;-75
2021/09/07 09:06:10;;;;;;;44.20;23.90;;;24.40;47.80;;;;;;5055286;28;20032;-75
2021/09/07 09:08:36;;;;;;;42.30;22.88;;;24.50;47.20;;;;;;5037238;28;20112;-75
2021/09/07 09:11:07;;;;;;;47.40;23.92;;;24.60;47.20;;;;;;5055409;28;20502;-75
2021/09/07 09:13:59;;;;;;;34.63;21.70;;;24.80;46.80;;;;;;5055384;28;20430;-75
2021/09/07 09:16:31;;;;;;;42.47;22.33;;;24.90;47.50;;;;;;5051601;28;20083;-76
2021/09/07 09:18:57;;;;;;;40.70;22.13;;;25.10;46.60;;;;;;5055229;28;20028;-75
2021/09/07 09:21:28;;;;;;;38.70;21.48;;;25.30;46.30;;;;;;5055193;28;20032;-75
2021/09/07 09:24:19;;;;;;;30.08;18.73;;;25.40;45.80;;;;;;5055099;28;20096;-75
2021/09/07 09:27:04;;;;;;;34.42;17.60;;;25.60;45.50;;;;;;5037259;28;20071;-75
2021/09/07 09:29:32;;;;;;;40.35;23.98;;;25.80;45.20;;;;;;5053619;28;20040;-75
2021/09/07 09:32:04;;;;;;;41.70;22.25;;;25.90;44.80;;;;;;5055143;28;20025;-76
2021/09/07 09:34:31;;;;;;;37.63;20.60;;;26.00;44.30;;;;;;5055009;28;20039;-76
2021/09/07 09:37:13;;;;;;;33.72;19.42;;;26.10;44.00;;;;;;5054938;28;20017;-76
2021/09/07 09:39:45;;;;;;;29.60;18.63;;;26.20;43.80;;;;;;5036706;28;20141;-76
2021/09/07 09:42:24;;;;;;;34.67;19.25;;;26.30;43.00;;;;;;5054734;28;20076;-76
2021/09/07 09:44:59;;;;;;;37.85;17.70;;;26.40;42.50;;;;;;5054835;28;20028;-75
2021/09/07 09:47:39;;;;;;;35.88;15.73;;;26.50;43.00;;;;;;5036891;28;20021;-75
2021/09/07 09:50:05;;;;;;;33.92;17.30;;;26.60;42.90;;;;;;5036724;28;20078;-75
2021/09/07 09:52:36;;;;;;;28.67;16.55;;;26.70;42.10;;;;;;5054418;28;20104;-76
2021/09/07 09:55:04;;;;;;;33.42;18.00;;;26.70;41.90;;;;;;5054419;28;20029;-76
2021/09/07 09:57:31;;;;;;;32.92;16.70;;;26.80;41.40;;;;;;5053814;28;20105;-76
2021/09/07 09:59:58;;;;;;;29.48;17.55;;;26.90;41.70;;;;;;5054475;28;20021;-75
2021/09/07 10:02:24;;;;;;;36.97;18.13;;;26.90;41.20;;;;;;5054217;28;20048;-76
2021/09/07 10:04:50;;;;;;;38.03;18.30;;;27.00;41.10;;;;;;5036547;28;20075;-76
2021/09/07 10:07:19;;;;;;;42.40;19.17;;;27.10;41.20;;;;;;5054257;28;20021;-75
2021/09/07 10:09:45;;;;;;;34.25;18.90;;;27.10;40.70;;;;;;5054381;28;20021;-76
2021/09/07 10:12:17;;;;;;;43.20;17.83;;;27.20;40.70;;;;;;5054306;28;20485;-77
2021/09/07 10:14:55;;;;;;;34.58;16.98;;;27.20;40.40;;;;;;5054188;28;20390;-75
2021/09/07 10:17:31;;;;;;;40.10;18.05;;;27.40;40.40;;;;;;5036012;28;20028;-76
2021/09/07 10:20:34;;;;;;;37.10;17.60;;;27.40;40.10;;;;;;5054076;28;20079;-76
2021/09/07 10:25:59;;;;;;;36.30;18.92;;;27.60;40.40;;;;;;5054033;28;20017;-75
2021/09/07 10:28:33;;;;;;;39.60;18.75;;;27.70;40.10;;;;;;5043928;28;20095;-75
2021/09/07 10:31:07;;;;;;;30.73;18.05;;;27.80;39.80;;;;;;5053713;28;20087;-75
2021/09/07 10:34:01;;;;;;;33.28;18.63;;;27.80;39.80;;;;;;5053867;28;20099;-75
2021/09/07 10:36:29;;;;;;;32.58;17.40;;;27.80;40.20;;;;;;5050642;28;20037;-75
2021/09/07 10:39:01;;;;;;;36.22;19.67;;;27.90;39.80;;;;;;5053816;28;20029;-75
2021/09/07 10:41:47;;;;;;;38.20;19.42;;;27.90;39.30;;;;;;5053597;28;20017;-76
2021/09/07 10:44:16;;;;;;;32.55;18.35;;;27.90;39.50;;;;;;5053629;28;20017;-76
2021/09/07 10:46:49;;;;;;;37.00;16.25;;;28.00;39.10;;;;;;5053308;28;20017;-76
2021/09/07 10:49:24;;;;;;;24.27;14.00;;;28.00;38.60;;;;;;5035607;28;20021;-75
2021/09/07 10:52:15;;;;;;;32.17;14.85;;;28.10;38.50;;;;;;5053599;28;20028;-76
2021/09/07 10:54:53;;;;;;;38.00;14.52;;;28.10;39.20;;;;;;5035639;28;20472;-75
2021/09/07 10:57:53;;;;;;;26.38;15.13;;;28.30;39.20;;;;;;5053416;28;20052;-75
2021/09/07 11:00:25;;;;;;;33.15;16.15;;;28.40;39.20;;;;;;5053316;28;20032;-76
2021/09/07 11:02:53;;;;;;;33.58;16.13;;;28.60;38.20;;;;;;5053231;28;20498;-76
2021/09/07 11:05:41;;;;;;;27.45;15.45;;;28.70;37.70;;;;;;5053275;28;20020;-76
2021/09/07 11:08:12;;;;;;;24.15;13.18;;;28.70;36.80;;;;;;5053186;28;20020;-76
2021/09/07 11:10:54;;;;;;;23.70;14.35;;;28.80;36.70;;;;;;5035447;28;20017;-76
2021/09/07 11:13:28;;;;;;;28.40;15.00;;;28.80;37.00;;;;;;5053174;28;20475;-75
2021/09/07 11:16:03;;;;;;;27.75;13.98;;;28.90;35.90;;;;;;5053035;28;20029;-75
2021/09/07 11:18:30;;;;;;;27.33;12.48;;;28.90;35.50;;;;;;5053030;28;20104;-76
2021/09/07 11:20:58;;;;;;;23.27;12.30;;;29.00;35.40;;;;;;5052862;28;20033;-76
2021/09/07 11:23:30;;;;;;;30.63;13.75;;;29.00;35.40;;;;;;5035064;28;20056;-76
2021/09/07 11:26:01;;;;;;;31.70;13.45;;;29.00;35.80;;;;;;5052957;28;20021;-76
2021/09/07 11:28:29;;;;;;;34.45;15.38;;;29.10;35.70;;;;;;5052892;28;20066;-76
2021/09/07 11:30:55;;;;;;;32.40;13.57;;;29.10;35.20;;;;;;5052744;28;20520;-76
2021/09/07 11:33:23;;;;;;;27.08;12.90;;;29.10;35.30;;;;;;5052867;28;20104;-75
2021/09/07 11:35:57;;;;;;;21.35;11.70;;;29.20;34.80;;;;;;5052973;28;20049;-75
2021/09/07 11:38:31;;;;;;;21.15;12.50;;;29.20;35.10;;;;;;5052772;28;20030;-76
2021/09/07 11:41:05;;;;;;;30.20;11.73;;;29.30;34.50;;;;;;5052616;28;20425;-76
2021/09/07 11:43:44;;;;;;;22.60;12.43;;;29.30;34.20;;;;;;5052847;28;20474;-76
2021/09/07 11:46:13;;;;;;;24.45;13.60;;;29.30;35.70;;;;;;5052749;28;20104;-75
2021/09/07 11:48:50;;;;;;;30.10;13.68;;;29.20;34.80;;;;;;5052669;28;20020;-76
2021/09/07 11:51:29;;;;;;;20.95;14.07;;;29.20;35.60;;;;;;5052744;28;20021;-75
2021/09/07 11:53:58;;;;;;;26.60;13.77;;;29.30;36.30;;;;;;5034938;28;20098;-75
2021/09/07 11:56:28;;;;;;;28.00;14.07;;;29.30;35.50;;;;;;5051378;28;20385;-76
2021/09/07 11:59:07;;;;;;;23.77;13.48;;;29.40;35.70;;;;;;5052688;28;20163;-75
2021/09/07 12:01:45;;;;;;;23.30;13.10;;;29.50;35.60;;;;;;5052630;28;20107;-76
2021/09/07 12:04:15;;;;;;;23.00;14.07;;;29.60;35.00;;;;;;5051350;28;20112;-76
2021/09/07 12:06:45;;;;;;;39.13;13.77;;;29.70;34.50;;;;;;5052452;28;20063;-76
2021/09/07 12:09:14;;;;;;;25.73;13.90;;;29.90;34.10;;;;;;5052572;28;20025;-76
2021/09/07 12:11:42;;;;;;;23.45;12.20;;;30.00;33.70;;;;;;5034719;28;20021;-76
2021/09/07 12:14:09;;;;;;;22.70;13.35;;;30.20;33.80;;;;;;5052550;28;20367;-76
2021/09/07 12:16:51;;;;;;;30.63;13.43;;;30.40;33.60;;;;;;5052723;28;20377;-76
2021/09/07 12:19:20;;;;;;;19.60;11.43;;;30.50;33.00;;;;;;5053342;28;20029;-76
2021/09/07 12:21:46;;;;;;;23.25;12.27;;;30.70;33.20;;;;;;5056159;28;20028;-76
2021/09/07 12:24:15;;;;;;;23.27;11.93;;;30.80;33.00;;;;;;5056165;28;20025;-76
2021/09/07 12:26:42;;;;;;;30.88;13.55;;;30.90;32.10;;;;;;5056305;28;20067;-76
2021/09/07 12:29:17;;;;;;;21.30;11.15;;;31.00;31.90;;;;;;5056047;28;20021;-76
2021/09/07 12:31:44;;;;;;;24.80;10.80;;;31.10;31.90;;;;;;5056185;28;20469;-76
2021/09/07 12:34:10;;;;;;;21.45;10.65;;;31.20;32.00;;;;;;5056046;28;20086;-76
2021/09/07 12:36:45;;;;;;;17.00;10.27;;;31.20;32.00;;;;;;5055897;28;20088;-76
2021/09/07 12:39:11;;;;;;;16.25;10.07;;;31.30;31.80;;;;;;5055953;28;20122;-76
2021/09/07 12:41:36;;;;;;;16.88;10.65;;;31.40;31.50;;;;;;5055879;28;20029;-76